Airfield :







YOU CAN JOIN US ON...

 
LOGIN :

Register | Disclaimer

   EN    FR    IT 

 









Legend :    VFR   Marginal VFR   IFR   Intensive IFR   Very Intensive IFR
Visi :
Ceiling :
>= 8 km
>= 3000ft
5 to 8 km
1000 to 3000 ft
1500m to 5 km
500 to 1000 ft
800 to 1500m
200 to 500 ft
< 800m
< 200 ft
Symbols :   Thunderstorms  Fog  Heavy snow  Heavy precipitations  Wind > 20 kt






- Airport Elevation : 59 ft
- IATA code : PBM


SMJP - J.A. Pengel Int.

CURRENT METAR :
  • 251800Z 36005KT 9999 VCSH FEW010 FEW015CB 31/24 Q1012 NOSIG

EXPIRED METARs :
  • 251700Z 05006KT 9999 -SHRA FEW015 SCT018 31/25 Q1013 NOSIG

TAF TAF SMJP
Valid from the 25 at 18:00 until the 26 at 18:00 UTC


251600Z 2518/2618 07008KT 9999 SCT015 SCT030 TX29/2518Z TN23/2609Z
TEMPO 2518/2521 4000 SHRA/TSRA FEW015CB BKN018
BECMG 2522/2600 07004KT 9999 FEW008 SCT025
TEMPO 2613/2618 3000 SHRA FEW015CB BKN018
SMPM FIR / South America



MET'MAP, your aeronautical weather chart ! - Copyright ORBIFLY December 2007 - Disclaimer

ORBIFLY MET'MAP TEAM :

Programming & Development : Alexandra Zaïnal
Concept & original design : Baudouin d'Aumeries
Assistance for programming : Marc-Olivier Méhu
Technical & hardware support : Manuel Goepfert

Contact : metmap@orbifly.com




SOURCES & CREDITS :

   NOAA